KATL Airport Information

Runway Information
Runway 08L Length 9000 ft width 150 ft
Elevation 1015 ft Threshold 0 ft Heading 90
Runway 26R Length 9000 ft Width 150 ft
Elevation 990 ft Threshold 0 ft Heading 270
Runway 08R Length 10000 ft width 150 ft
Elevation 1024 ft Threshold 0 ft Heading 90
Runway 26L Length 10000 ft Width 150 ft
Elevation 995 ft Threshold 0 ft Heading 270
Runway 09L Length 11890 ft width 150 ft
Elevation 1019 ft Threshold 0 ft Heading 90
Runway 27R Length 11890 ft Width 150 ft
Elevation 978 ft Threshold 0 ft Heading 270
Runway 09R Length 9001 ft width 150 ft
Elevation 1026 ft Threshold 0 ft Heading 90
Runway 27L Length 9001 ft Width 150 ft
Elevation 985 ft Threshold 0 ft Heading 270
Runway 10 Length 9000 ft width 150 ft
Elevation 1000 ft Threshold 0 ft Heading 90
Runway 28 Length 9000 ft Width 150 ft
Elevation 998 ft Threshold 0 ft Heading 270
Airport Frequencies
Type APP Name ATLANTA AP Frequency 118.35 MHZ
Type ATIS Name ATIS Frequency 119.65 MHZ
Type CLD Name CLNC DEL Frequency 118.1 MHZ
Type DEP Name ATLANTA DE Frequency 125 MHZ
Type GND Name GND Frequency 121.65 MHZ
Type RDO Name MACON RDO Frequency 116.9 MHZ
Type SFA Name SFA Frequency 30.697 MHZ
Type TWR Name ATLANTA TW Frequency 119.1 MHZ
Type UNIC Name UNICOM Frequency 122.95 MHZ
Airport Navaids
Type NDB Name Catta Frequency 375 KHZ
Type VORTAC Name Atlanta Frequency 116900 KHZ
Type NDB Name Redan Frequency 266 KHZ
Airport Weather Information & NOTAM
ADDS - METARS form results

(1351 UTC 24 January 2020)
Data provider http://aviationweather.gov/metar/data/
 
METAR text: KATL 241345Z 08008KT 1/4SM R09R/P6000FT BR OVC003 07/05 A2999 RMK AO2 SFC VIS 5 DZE38 CIG 002V004 TWRINC P0000 T00670050
Conditions at: KATL (ATLANTA , GA, US) observed 1345 UTC 24 January 2020
Temperature: 6.7°C (44°F)
Dewpoint: 5.0°C (41°F) [RH = 89%]
Pressure (altimeter): 29.99 inches Hg (1015.7 mb)
Winds: from the E (80 degrees) at 9 MPH (8 knots; 4.1 m/s)
Visibility: 0.25 miles (0.40 km)
Ceiling: 300 feet AGL
Clouds: overcast cloud deck at 300 feet AGL
Weather: BR  (mist)

METAR text: KATL 241323Z 08007KT 3/4SM R09R/P6000FT -DZ BR OVC004 07/05 A2999 RMK AO2 SFC VIS 6 CIG 003V005 TWRINC P0000 T00670050
Conditions at: KATL (ATLANTA , GA, US) observed 1323 UTC 24 January 2020
Temperature: 6.7°C (44°F)
Dewpoint: 5.0°C (41°F) [RH = 89%]
Pressure (altimeter): 29.99 inches Hg (1015.7 mb)
Winds: from the E (80 degrees) at 8 MPH (7 knots; 3.6 m/s)
Visibility: 0.75 miles (1.21 km)
Ceiling: 400 feet AGL
Clouds: overcast cloud deck at 400 feet AGL
Weather: -DZ BR  (light drizzle, mist)

METAR text: KATL 241312Z 09007KT 1 1/2SM -DZ BR OVC005 07/05 A2999 RMK AO2 SFC VIS 6 CIG 004V007 P0000 T00670050
Conditions at: KATL (ATLANTA , GA, US) observed 1312 UTC 24 January 2020
Temperature: 6.7°C (44°F)
Dewpoint: 5.0°C (41°F) [RH = 89%]
Pressure (altimeter): 29.99 inches Hg (1015.7 mb)
Winds: from the E (90 degrees) at 8 MPH (7 knots; 3.6 m/s)
Visibility: 1.50 miles (2.41 km)
Ceiling: 500 feet AGL
Clouds: overcast cloud deck at 500 feet AGL
Weather: -DZ BR  (light drizzle, mist)

METAR text: KATL 241252Z 12003KT 3SM -DZ BR OVC006 06/05 A2999 RMK AO2 SFC VIS 6 RAE32DZB32 SLP160 CIG 005V008 P0002 T00610050
Conditions at: KATL (ATLANTA , GA, US) observed 1252 UTC 24 January 2020
Temperature: 6.1°C (43°F)
Dewpoint: 5.0°C (41°F) [RH = 93%]
Pressure (altimeter): 29.99 inches Hg (1015.7 mb)
[Sea-level pressure: 1016.0 mb]
Winds: from the ESE (120 degrees) at 3 MPH (3 knots; 1.5 m/s)
Visibility: 3 miles ( 5 km)
Ceiling: 600 feet AGL
Clouds: overcast cloud deck at 600 feet AGL
Weather: -DZ BR  (light drizzle, mist)

Forecast for: KATL (ATLANTA , GA, US)
Text: KATL 241133Z 2412/2518 11009KT 3SM -RA BR OVC004 WS020/18040KT
Forecast period: 1200 to 1700 UTC 24 January 2020
Forecast type: FROM: standard forecast or significant change
Winds: from the ESE (110 degrees) at 10 MPH (9 knots; 4.6 m/s)
Visibility: 3 miles (5 km)
Ceiling: 400 feet AGL
Clouds: overcast cloud deck at 400 feet AGL
Wind Shear: at 2000 feet ( 610 m) AGL, from the S (180 degrees) at 46 MPH (40 knots; 20.8 m/s)
Weather: -RA BR  (light rain, mist)
Text: FM241700 24007KT P6SM VCSH BKN008
Forecast period: 1700 to 1900 UTC 24 January 2020
Forecast type: FROM: standard forecast or significant change
Winds: from the WSW (240 degrees) at 8 MPH (7 knots; 3.6 m/s)
Visibility: 6 or more miles 10+ km)
Ceiling: 800 feet AGL
Clouds: broken clouds at 800 feet AGL
Weather: VCSH  (showers in vicinity)
Text: FM241900 24007KT P6SM BKN015
Forecast period: 1900 to 2100 UTC 24 January 2020
Forecast type: FROM: standard forecast or significant change
Winds: from the WSW (240 degrees) at 8 MPH (7 knots; 3.6 m/s)
Visibility: 6 or more miles 10+ km)
Ceiling: 1500 feet AGL
Clouds: broken clouds at 1500 feet AGL
Weather: no significant weather forecast for this period
Text: FM242100 25008KT P6SM SCT050 BKN200
Forecast period: 2100 UTC 24 January 2020 to 0600 UTC 25 January 2020
Forecast type: FROM: standard forecast or significant change
Winds: from the WSW (250 degrees) at 9 MPH (8 knots; 4.1 m/s)
Visibility: 6 or more miles 10+ km)
Ceiling: 20000 feet AGL
Clouds: scattered clouds at 5000 feet AGL
broken clouds at 20000 feet AGL
Weather: no significant weather forecast for this period
Text: FM250600 29008KT P6SM BKN025
Forecast period: 0600 to 1800 UTC 25 January 2020
Forecast type: FROM: standard forecast or significant change
Winds: from the WNW (290 degrees) at 9 MPH (8 knots; 4.1 m/s)
Visibility: 6 or more miles 10+ km)
Ceiling: 2500 feet AGL
Clouds: broken clouds at 2500 feet AGL
Weather: no significant weather forecast for this period